Reportages photos

Connexion

5Km

5 KM Licques du 08/10/17 (Réelle 5,1)
Rang Dossard Nom Prénom Temps Cat Rang Cat Ecart Ecart Cat Club Vitesse Km/h Temps au Km
1 533 BAROUX NICOLAS 00:16:13 SEM 1 00:00:00 00:00:00 AC AUDOMAROIS 18,869 03:11
2 485 CLABAUX Alexis 00:16:40 ESM 1 00:00:27 00:00:00 LA PATRIOTE CROSS DE GUîNES 18,360 03:16
3 422 VANDEWALLE Thomas 00:16:44 SEM 2 00:00:31 00:00:31 - 18,287 03:17
4 480 COCQUET Barnabé 00:16:49 JUM 1 00:00:36 00:00:00 GRAVELINES TRIATHLON 18,196 03:18
5 544 FORATIER QUENTIN 00:16:54 ESM 2 00:00:41 00:00:14 Olympique Grande Synthe 18,107 03:19
6 482 SBARDELLA François 00:17:23 SEM 3 00:01:10 00:01:10 GRAVELINES TRIATHLON 17,603 03:25
7 461 MARQUANT Christophe 00:17:26 V1M 1 00:01:13 00:00:00 ATHLETIC CLUB AUDOMAROIS 17,553 03:25
8 401 MONTHE Jean-marc 00:17:35 V1M 2 00:01:22 00:00:09 - 17,403 03:27
9 483 MARIETTE Thomas 00:17:39 MIM 1 00:01:26 00:00:00 GRAVELINES TRIATHLON 17,337 03:28
10 479 COCQUET Paul 00:18:00 JUM 2 00:01:47 00:01:11 GRAVELINES TRIATHLON 17,000 03:32
11 512 DEVIN Alexis 00:18:06 MIM 2 00:01:53 00:00:27 MARQUISE ATHLéTISME 16,906 03:33
12 531 MARGUET LOUIS 00:18:08 CAM 1 00:01:55 00:00:00 AC AUDOMAROIS 16,875 03:33
13 503 FEUTRY Gregory 00:18:13 SEM 4 00:02:00 00:02:00 LYS CALAIS TRIATHLON 16,798 03:34
14 520 LHEUREUX Daniel 00:18:18 V1M 3 00:02:05 00:00:52 SPORT EVASION DES 2 CAPS 16,721 03:35
15 505 BERDIN Léo 00:18:28 MIM 3 00:02:15 00:00:49 LYS CALAIS TRIATHLON 16,570 03:37
16 462 LOISON Louis 00:18:33 CAM 2 00:02:20 00:00:25 BLANC NEZ TRIATHLON 16,496 03:38
17 481 RENAUX Frederic 00:18:52 V1M 4 00:02:39 00:01:26 GRAVELINES TRIATHLON 16,219 03:42
18 441 DEKNUYDT Laurent 00:19:01 V1M 5 00:02:48 00:01:35 - 16,091 03:44
19 473 BRUCHET Logan 00:19:25 MIM 4 00:03:12 00:01:46 ELAN FRUGEOIS 15,760 03:48
20 487 DENIS Gwendoline 00:19:36 SEF 1 00:03:23 00:00:00 LA PATRIOTE CROSS DE GUîNES 15,612 03:51
21 511 DINIELLE Arnaud 00:19:46 V1M 6 00:03:33 00:02:20 MARQUISE ATHLéTISME 15,481 03:53
22 527 CARPENTIER THIERRY 00:19:48 V2M 1 00:03:35 00:00:00 SPORT EVASION DES 2 CAPS 15,455 03:53
23 470 LANG Lucie 00:19:57 JUF 1 00:03:44 00:00:00 COTE OPALE TRIATHLON SAINT OMER 15,338 03:55
24 539 TROLLE ELIE 00:20:10 MIM 5 00:03:57 00:02:31 - 15,174 03:57
25 449 DUFOUR Louis 00:20:12 MIM 6 00:03:59 00:02:33 - 15,149 03:58
26 535 SORET MATHIEU 00:20:19 SEM 5 00:04:06 00:04:06 - 15,062 03:59
27 499 BOIS Stephane 00:20:20 V1M 7 00:04:07 00:02:54 LA PATRIOTE CROSS DE GUîNES 15,049 03:59
28 488 DECROCK MATHEO 00:20:23 MIM 7 00:04:10 00:02:44 LA PATRIOTE CROSS DE GUîNES 15,012 04:00
29 537 DAQUIN NICOLAS 00:20:30 ESM 3 00:04:17 00:03:50 - 14,927 04:01
30 408 MASSET Michel 00:20:34 V2M 2 00:04:21 00:00:46 RC EPERLECQUES 14,878 04:02
31 432 BOUCHEZ Olivier 00:20:54 V1M 8 00:04:41 00:03:28 - 14,641 04:06
32 406 B'AHEU PATRICK 00:21:06 V3M 1 00:04:53 00:00:00 LE DRAPEAU LE PORTEL 14,502 04:08
33 463 LAMARRE Maxime 00:21:09 V2M 3 00:04:56 00:01:21 BOULOGNE ATHLéTIC CLUB 14,468 04:09
34 519 TOWMSEND Cindy 00:21:13 SEF 2 00:05:00 00:01:37 SP ARDRES 14,423 04:10
35 513 BAY ANAELLE 00:21:14 MIF 1 00:05:01 00:00:00 MARQUISE ATHLéTISME 14,411 04:10
36 529 SAGOT PHILIPPE 00:21:15 V2M 4 00:05:02 00:01:27 - 14,400 04:10
37 425 LEBAS Benjamin 00:21:22 JUM 3 00:05:09 00:04:33 - 14,321 04:11
38 458 MASCOT David 00:21:36 V1M 9 00:05:23 00:04:10 AS MARCK 14,167 04:14
39 184 FRANCOIS Frédéric 00:21:37 V1M 10 00:05:24 00:04:11 MARQUISE ATHLéTISME 14,156 04:14
40 538 DEVIN NOEMIE 00:21:38 MIF 2 00:05:25 00:00:24 GRAVELINES TRIATHLON 14,145 04:15
41 443 LEFEBVRE Joachim 00:21:41 SEM 6 00:05:28 00:05:28 - 14,112 04:15
42 444 LEFEBVRE Anthony 00:21:55 ESM 4 00:05:42 00:05:15 - 13,962 04:18
43 534 DOUBLECOURT SULLIVAN 00:21:59 SEM 7 00:05:46 00:05:46 - 13,920 04:19
44 522 POURREAU CLEMENCE 00:22:00 MIF 3 00:05:47 00:00:46 ATHLETISME CLUB OUTREAU 13,909 04:19
45 498 BIGOT Quentin 00:22:12 MIM 8 00:05:59 00:04:33 LA PATRIOTE CROSS DE GUîNES 13,784 04:21
46 440 QUENNEHEN Martin 00:22:13 CAM 3 00:06:00 00:04:05 - 13,773 04:21
47 502 NIELLEN Flora 00:22:17 MIF 4 00:06:04 00:01:03 LYS CALAIS TRIATHLON 13,732 04:22
48 504 LANTOINE Alexandre 00:22:17 MIM 9 00:06:04 00:04:38 LYS CALAIS TRIATHLON 13,732 04:22
49 528 DUHAUTOY EMELINE 00:22:19 SEF 3 00:06:06 00:02:43 - 13,712 04:23
50 420 PIERRU Julien 00:22:25 SEM 8 00:06:12 00:06:12 - 13,651 04:24
51 435 STASZEWSKI Franck 00:22:26 V1M 11 00:06:13 00:05:00 - 13,640 04:24
52 460 VANDENABEELE Virginie 00:22:56 V1F 1 00:06:43 00:00:00 AS MARCK 13,343 04:30
53 542 LYSENSOONE HENRI 00:22:58 V2M 5 00:06:45 00:03:10 - 13,324 04:30
54 495 GAVOIS Jimmy 00:23:11 SEM 9 00:06:58 00:06:58 LA PATRIOTE CROSS DE GUîNES 13,199 04:33
55 496 PIEDBOIS Willy 00:23:12 V1M 12 00:06:59 00:05:46 LA PATRIOTE CROSS DE GUîNES 13,190 04:33
56 484 BECQUET KARINE 00:23:14 V1F 2 00:07:01 00:00:18 LA PATRIOTE CROSS DE GUîNES 13,171 04:33
57 424 LORGNIER Emmanuel 00:23:16 V1M 13 00:07:03 00:05:50 - 13,152 04:34
58 450 LACOUR Adrien 00:23:21 JUM 4 00:07:08 00:06:32 - 13,105 04:35
59 402 BAILLIEU Roseline 00:23:27 SEF 4 00:07:14 00:03:51 LE DRAPEAU LE PORTEL 13,049 04:36
60 508 SCOTTE Martin 00:23:32 MIM 10 00:07:19 00:05:53 MARQUISE ATHLéTISME 13,003 04:37
61 536 BERTIN AUBIN 00:23:34 ESM 5 00:07:21 00:06:54 - 12,984 04:37
62 543 FRANCOIS NOAH 00:23:36 MIM 11 00:07:23 00:05:57 - 12,966 04:38
63 525 DEGRAVE PATRICK 00:23:37 V3M 2 00:07:24 00:02:31 COURIR A GRAVELINES 12,957 04:38
64 474 VANTIEGHEM Flavie 00:23:39 MIF 5 00:07:26 00:02:25 ELAN FRUGEOIS 12,939 04:38
65 421 FASQUELLE Elisabeth 00:23:42 SEF 5 00:07:29 00:04:06 FOULEES DOULLENNAISES 12,911 04:39
66 459 LAPIERRE Cathy 00:23:43 SEF 6 00:07:30 00:04:07 AS MARCK 12,902 04:39
67 445 BERNARD FREDERIQUE 00:23:45 V1F 3 00:07:32 00:00:49 - 12,884 04:39
68 417 GORET Jordan 00:24:02 CAM 4 00:07:49 00:05:54 - 12,732 04:43
69 451 LECOINTE Thomas 00:24:13 CAM 5 00:08:00 00:06:05 - 12,636 04:45
70 457 DUQUENOY Laurine 00:24:16 MIF 6 00:08:03 00:03:02 AJCL 12,610 04:45
71 546 JACOB HENRI 00:24:27 MIM 12 00:08:14 00:06:48 - 12,515 04:48
72 185 FILLIETTE Nicolas 00:24:31 V1M 14 00:08:18 00:07:05 MARQUISE ATHLéTISME 12,481 04:48
73 434 BOLDRON Aurélie 00:24:41 SEF 7 00:08:28 00:05:05 - 12,397 04:50
74 547 JACOB JEREMY 00:24:50 V1M 15 00:08:37 00:07:24 - 12,322 04:52
75 452 ARGENTIN Antoine 00:24:52 CAM 6 00:08:39 00:06:44 - 12,306 04:53
76 497 DENEZ LAIS 00:24:53 CAF 1 00:08:40 00:00:00 LA PATRIOTE CROSS DE GUîNES 12,297 04:53
77 521 MARQUANT Delphine 00:25:04 V1F 4 00:08:51 00:02:08 STADE LONGUENESSOIS 12,207 04:55
78 430 RIGOULET Pascal 00:25:05 V1M 16 00:08:52 00:07:39 - 12,199 04:55
79 526 DUHAMEL NICOLAS 00:25:13 SEM 10 00:09:00 00:09:00 LA PATRIOTE CROSS DE GUîNES 12,135 04:57
80 416 BOIN Arnaud 00:25:16 SEM 11 00:09:03 00:09:03 - 12,111 04:57
81 415 BUTOR Laetitia 00:25:17 SEF 8 00:09:04 00:05:41 - 12,103 04:57
82 427 HENQUEZ Yves 00:25:30 V4M 1 00:09:17 00:00:00 - 12,000 05:00
83 530 DIVE JEAN-MARIE 00:25:47 V3M 3 00:09:34 00:04:41 R.C. BLENDECQUES 11,868 05:03
84 446 CHOCHOY Isabelle 00:25:53 V2F 1 00:09:40 00:00:00 - 11,822 05:05
85 407 B'AHEU NICOLAS 00:25:58 JUM 5 00:09:45 00:09:09 LE DRAPEAU LE PORTEL 11,784 05:05
86 490 DA SILVA ANNE-SOPHIE 00:26:01 V2F 2 00:09:48 00:00:08 LA PATRIOTE CROSS DE GUîNES 11,762 05:06
87 464 HAYEME Tony 00:26:04 SEM 12 00:09:51 00:09:51 BOULOGNE ATHLETIC CLUB 11,739 05:07
88 454 LEBON Audrey 00:26:11 SEF 9 00:09:58 00:06:35 AC CAPELLOIS 11,687 05:08
89 465 TROUMELEN Marilyne 00:26:19 V1F 5 00:10:06 00:03:23 COURSE ANIMATIONS POPULAIRES 11,628 05:10
90 448 PLAQUET Belinda 00:26:22 V1F 6 00:10:09 00:03:26 - 11,606 05:10
91 410 BEGUE Corentin 00:26:35 JUM 6 00:10:22 00:09:46 - 11,511 05:13
92 423 LORGNIER Bérénice 00:26:40 CAF 2 00:10:27 00:01:47 - 11,475 05:14
93 532 BOUTOILLE LUDOVIC 00:27:14 SEM 13 00:11:01 00:11:01 - 11,236 05:20
94 524 DEGRAVE PATRICIA 00:27:38 V3F 1 00:11:25 00:00:00 COURIR A GRAVELINES 11,074 05:25
95 418 BEGUE Anita 00:27:46 V1F 7 00:11:33 00:04:50 - 11,020 05:27
96 548 DA SILVA EDOUARD 00:28:02 SEM 14 00:11:49 00:11:49 LA PATRIOTE CROSS DE GUîNES 10,916 05:30
97 429 LANTOINE Guillaume 00:28:03 V1M 17 00:11:50 00:10:37 - 10,909 05:30
98 469 BONNETAUD Cindy 00:28:20 SEF 10 00:12:07 00:08:44 COURSE ANIMATIONS POPULAIRES 10,800 05:33
99 439 NORMAND François 00:28:28 V1M 18 00:12:15 00:11:02 - 10,749 05:35
100 67 LELEU David 00:28:38 V1M 19 00:12:25 00:11:12 - 10,687 05:37
101 516 DETRES Sylvia 00:29:01 V1F 8 00:12:48 00:06:05 OXYGENE 10,546 05:41
102 551 DELATTRE GREGOIRE 00:29:08 SEM 15 00:12:55 00:12:55 - 10,503 05:43
103 489 STAWSKI Nathalie 00:29:16 V1F 9 00:13:03 00:06:20 LA PATRIOTE CROSS DE GUîNES 10,456 05:44
104 428 STUBERT Edwige 00:29:23 V1F 10 00:13:10 00:06:27 - 10,414 05:46
105 447 HÉNARD Anna 00:29:31 CAF 3 00:13:18 00:04:38 - 10,367 05:47
106 466 RIGAUT Camille 00:29:34 CAF 4 00:13:21 00:04:41 COURSE ANIMATIONS POPULAIRES 10,349 05:48
107 419 BEGUE Florine 00:29:35 MIF 7 00:13:22 00:08:21 - 10,344 05:48
108 549 BAILLEUL SIDONIE 00:29:40 V2F 3 00:13:27 00:03:47 - 10,315 05:49
109 431 FAUQUEMBERGUE Jacky 00:29:46 SEM 16 00:13:33 00:13:33 - 10,280 05:50
110 550 BAILLEUL CLOE 00:30:14 ESF 1 00:14:01 00:00:00 - 10,121 05:56
111 541 SOURDEVAL JUSTINE 00:30:25 SEF 11 00:14:12 00:10:49 - 10,060 05:58
112 413 D'ALLENDE Charlotte 00:30:25 ESF 2 00:14:12 00:00:11 - 10,060 05:58
113 523 HIRAUT JEAN-FRANCOIS 00:30:31 SEM 17 00:14:18 00:14:18 - 10,027 05:59
114 404 FLAHAUT Stessy 00:30:34 CAF 5 00:14:21 00:05:41 LE DRAPEAU LE PORTEL 10,011 06:00
115 438 NORMAND Nathalie 00:30:51 V1F 11 00:14:38 00:07:55 - 9,919 06:03
116 493 STAELENS Céline 00:31:07 SEF 12 00:14:54 00:11:31 LA PATRIOTE CROSS DE GUîNES 9,834 06:06
117 491 EHLEN BENOIT 00:31:07 V1M 20 00:14:54 00:13:41 LA PATRIOTE CROSS DE GUîNES 9,834 06:06
118 412 D'ALLENDE Camille 00:31:32 JUF 2 00:15:19 00:11:35 - 9,704 06:11
119 411 D'ALLENDE Muriel 00:31:32 V1F 12 00:15:19 00:08:36 - 9,704 06:11
120 5 DUBREUIL Florence 00:31:36 SEF 13 00:15:23 00:12:00 - 9,684 06:12
121 476 MANIER Vicky 00:31:39 MIF 8 00:15:26 00:10:25 ELAN FRUGEOIS 9,668 06:12
122 494 GAVOIS Ludivine 00:31:41 SEF 14 00:15:28 00:12:05 LA PATRIOTE CROSS DE GUîNES 9,658 06:13
123 500 FASQUELLE Damien 00:31:41 V1M 21 00:15:28 00:14:15 LES FOULLéES DOULLENNAISES 9,658 06:13
124 477 HUYGHE Sophie 00:31:43 V1F 13 00:15:30 00:08:47 ELAN FRUGEOIS 9,648 06:13
125 492 COZE Fabienne 00:31:47 V2F 4 00:15:34 00:05:54 LA PATRIOTE CROSS DE GUîNES 9,628 06:14
126 433 HAMY Dany 00:31:52 V2F 5 00:15:39 00:05:59 - 9,603 06:15
127 405 RIQUIER Marielle 00:32:05 V2F 6 00:15:52 00:06:12 LE DRAPEAU LE PORTEL 9,538 06:17
128 478 DUCROCQ Céline 00:32:12 V1F 14 00:15:59 00:09:16 ELAN FRUGEOIS 9,503 06:19
129 442 HEDE Vanessa 00:32:30 SEF 15 00:16:17 00:12:54 - 9,415 06:22
130 540 HOIN LISE 00:32:40 SEF 16 00:16:27 00:13:04 - 9,367 06:24
131 471 DELATTRE Anne sophie 00:32:40 V1F 15 00:16:27 00:09:44 COURIR DANS LE LUMBROIS 9,367 06:24
132 472 EVRARD Annick 00:32:40 V1F 16 00:16:27 00:09:44 COURIR DANS LE LUMBROIS 9,367 06:24
133 414 DENIS Norbert 00:32:54 V3M 4 00:16:41 00:11:48 - 9,301 06:27
134 453 BRUNET Isabelle 00:33:03 V1F 17 00:16:50 00:10:07 AC CAPELLOIS 9,259 06:29
135 436 ROSSI Frédéric 00:33:15 V3M 5 00:17:02 00:12:09 - 9,203 06:31
136 426 VANTIEGHEM Oceane 00:34:15 CAF 6 00:18:02 00:09:22 ELAN FRUGEOIS 8,934 06:43
137 456 SINNAEVE Karine 00:34:43 V1F 18 00:18:30 00:11:47 AC CAPELLOIS 8,814 06:48
138 437 ROSSI Catherine 00:35:10 V2F 7 00:18:57 00:09:17 - 8,701 06:54
139 518 MELIN Cédric 00:35:18 SEM 18 00:19:05 00:19:05 SP ARDRES 8,669 06:55
140 409 VASSEUR Sarah 00:36:33 ESF 3 00:20:20 00:06:19 - 8,372 07:10
141 455 NOEL Ludivine 00:36:56 V1F 19 00:20:43 00:14:00 AC CAPELLOIS 8,285 07:15
142 403 DELPIERRE Charlotte 00:37:12 SEF 17 00:20:59 00:17:36 LE DRAPEAU LE PORTEL 8,226 07:18
143 475 VANTIEGHEM Caroline 00:41:29 SEF 18 00:25:16 00:21:53 ELAN FRUGEOIS 7,376 08:08
144 468 LASSALLE Nadège 00:44:14 V1F 20 00:28:01 00:21:18 COURSE ANIMATIONS POPULAIRES 6,918 08:40
145 467 LASSALLE Yanninck 00:44:15 V1M 22 00:28:02 00:26:49 COURSE ANIMATIONS POPULAIRES 6,915 08:41